createdAt,value
2023-05-09T00:01:32.617Z,3.40
2023-05-09T00:03:59.964Z,4.00
2023-05-09T00:06:27.870Z,3.60
2023-05-09T00:08:55.857Z,3.67
2023-05-09T00:11:23.328Z,3.47
2023-05-09T00:13:50.935Z,3.70
2023-05-09T00:16:18.634Z,3.80
2023-05-09T00:18:47.158Z,3.35
2023-05-09T00:21:14.372Z,3.47
2023-05-09T00:23:41.588Z,3.95
2023-05-09T00:26:10.038Z,3.28
2023-05-09T00:28:37.553Z,3.60
2023-05-09T00:31:05.658Z,3.72
2023-05-09T00:33:33.700Z,3.97
2023-05-09T00:36:01.132Z,3.90
2023-05-09T00:38:28.645Z,3.83
2023-05-09T00:40:55.873Z,3.05
2023-05-09T00:43:23.297Z,3.70
2023-05-09T00:45:50.676Z,4.13
2023-05-09T00:48:17.995Z,3.95
2023-05-09T00:50:45.729Z,3.28
2023-05-09T00:53:13.111Z,3.60
2023-05-09T00:55:40.500Z,3.40
2023-05-09T00:58:07.735Z,3.78
2023-05-09T01:00:35.186Z,3.60
2023-05-09T01:03:02.487Z,3.63
2023-05-09T01:05:35.011Z,3.63
2023-05-09T01:08:13.195Z,3.60
2023-05-09T01:11:01.280Z,3.00
2023-05-09T01:13:38.826Z,3.33
2023-05-09T01:16:18.152Z,3.33
2023-05-09T01:19:27.659Z,3.40
2023-05-09T01:21:54.868Z,3.45
2023-05-09T01:24:21.952Z,3.58
2023-05-09T01:27:13.213Z,3.40
2023-05-09T01:29:43.505Z,3.58
2023-05-09T01:32:22.955Z,3.60
2023-05-09T01:34:52.038Z,3.67
2023-05-09T01:37:20.105Z,3.70
2023-05-09T01:39:51.653Z,4.35
2023-05-09T01:42:19.250Z,3.80
2023-05-09T01:44:46.741Z,3.90
2023-05-09T01:47:16.386Z,3.38
2023-05-09T01:49:43.719Z,3.72
2023-05-09T01:52:12.411Z,3.22
2023-05-09T01:54:39.710Z,3.80
2023-05-09T01:57:07.718Z,3.45
2023-05-09T01:59:35.290Z,3.90
2023-05-09T02:02:03.530Z,3.47
2023-05-09T02:04:31.202Z,4.22
2023-05-09T02:06:58.383Z,3.55
2023-05-09T02:09:25.645Z,4.00
2023-05-09T02:11:53.844Z,3.80
2023-05-09T02:14:21.141Z,3.78
2023-05-09T02:16:48.382Z,3.28
2023-05-09T02:19:16.924Z,3.60
2023-05-09T02:21:44.267Z,3.55
2023-05-09T02:24:11.539Z,3.63
2023-05-09T02:26:38.981Z,3.50
2023-05-09T02:29:07.373Z,3.75
2023-05-09T02:31:34.981Z,3.40
2023-05-09T02:34:03.971Z,3.28
2023-05-09T02:36:32.656Z,4.60
2023-05-09T02:39:00.305Z,4.03
2023-05-09T02:41:30.873Z,3.72
2023-05-09T02:43:58.066Z,3.50
2023-05-09T02:46:25.985Z,3.30
2023-05-09T02:48:53.366Z,4.60
2023-05-09T02:51:20.609Z,4.10
2023-05-09T02:53:47.850Z,3.25
2023-05-09T02:56:15.606Z,4.65
2023-05-09T02:58:42.875Z,3.15
2023-05-09T03:01:10.196Z,4.20
2023-05-09T03:03:38.063Z,3.80
2023-05-09T03:06:06.024Z,3.55
2023-05-09T03:08:33.658Z,4.38
2023-05-09T03:11:01.042Z,3.53
2023-05-09T03:13:28.272Z,4.20
2023-05-09T03:15:55.561Z,4.60
2023-05-09T03:18:23.565Z,3.83
2023-05-09T03:20:51.008Z,3.90
2023-05-09T03:23:18.254Z,5.53
2023-05-09T03:25:45.519Z,7.18
2023-05-09T03:28:12.792Z,5.55
2023-05-09T03:30:40.093Z,4.70
2023-05-09T03:33:07.989Z,7.22
2023-05-09T03:35:35.436Z,7.50
2023-05-09T03:38:02.759Z,6.43
2023-05-09T03:40:30.176Z,7.47
2023-05-09T03:42:57.430Z,6.68
2023-05-09T03:45:24.746Z,6.07
2023-05-09T03:47:52.120Z,6.80
2023-05-09T03:50:19.308Z,7.47
2023-05-09T03:52:46.637Z,6.63
2023-05-09T03:55:14.017Z,5.65
2023-05-09T03:57:41.452Z,5.05
2023-05-09T04:00:10.270Z,7.40
2023-05-09T04:02:37.632Z,4.53
2023-05-09T04:05:05.337Z,6.57
2023-05-09T04:07:32.614Z,6.95
2023-05-09T04:10:00.061Z,6.35
2023-05-09T04:12:27.334Z,5.22
2023-05-09T04:14:54.533Z,5.80
2023-05-09T04:17:21.879Z,6.28
2023-05-09T04:19:49.249Z,7.47
2023-05-09T04:22:16.756Z,5.50
2023-05-09T04:24:44.020Z,4.40
2023-05-09T04:27:11.488Z,7.25
2023-05-09T04:29:39.033Z,6.72
2023-05-09T04:32:06.486Z,7.07
2023-05-09T04:34:33.863Z,6.07
2023-05-09T04:37:01.185Z,5.93
2023-05-09T04:39:28.482Z,5.60
2023-05-09T04:41:55.901Z,4.13
2023-05-09T04:44:24.465Z,5.57
2023-05-09T04:46:52.164Z,6.63
2023-05-09T04:49:19.416Z,5.72
2023-05-09T04:51:46.789Z,6.75
2023-05-09T04:54:14.008Z,5.63
2023-05-09T04:56:41.299Z,6.35
2023-05-09T04:59:08.495Z,5.90
2023-05-09T05:01:36.094Z,6.47
2023-05-09T05:04:03.360Z,5.22
2023-05-09T05:06:31.964Z,5.28
2023-05-09T05:08:59.670Z,5.40
2023-05-09T05:11:26.871Z,6.22
2023-05-09T05:13:55.989Z,6.47
2023-05-09T05:16:23.404Z,5.18
2023-05-09T05:18:50.622Z,5.22
2023-05-09T05:21:17.876Z,4.30
2023-05-09T05:23:45.143Z,6.00
2023-05-09T05:26:12.299Z,5.47
2023-05-09T05:28:39.584Z,5.80
2023-05-09T05:31:06.971Z,5.15
2023-05-09T05:33:34.644Z,4.45
2023-05-09T05:36:02.136Z,5.25
2023-05-09T05:38:29.521Z,5.57
2023-05-09T05:40:56.801Z,5.15
2023-05-09T05:43:24.045Z,5.70
2023-05-09T05:45:51.353Z,5.68
2023-05-09T05:48:18.628Z,4.97
2023-05-09T05:50:45.913Z,6.13
2023-05-09T05:53:13.127Z,5.10
2023-05-09T05:55:40.533Z,5.45
2023-05-09T05:58:08.124Z,6.05
2023-05-09T06:00:36.285Z,5.00
2023-05-09T06:03:03.684Z,5.93
2023-05-09T06:05:31.171Z,6.22
2023-05-09T06:07:58.479Z,6.65
2023-05-09T06:10:26.130Z,5.38
2023-05-09T06:12:53.513Z,5.78
2023-05-09T06:15:20.794Z,5.45
2023-05-09T06:17:48.109Z,6.45
2023-05-09T06:20:15.295Z,6.38
2023-05-09T06:22:42.605Z,6.07
2023-05-09T06:25:14.230Z,6.28
2023-05-09T06:27:42.488Z,5.55
2023-05-09T06:32:40.505Z,5.23
2023-05-09T06:35:08.022Z,5.93
2023-05-09T06:37:35.290Z,5.72
2023-05-09T06:40:02.615Z,5.50
2023-05-09T06:42:32.635Z,5.78
2023-05-09T06:44:59.903Z,6.32
2023-05-09T06:47:27.176Z,7.20
2023-05-09T06:49:54.751Z,7.38
2023-05-09T06:52:22.217Z,4.45
2023-05-09T06:54:49.431Z,5.57
2023-05-09T06:57:16.761Z,5.13
2023-05-09T06:59:44.885Z,6.32
2023-05-09T07:02:12.076Z,5.22
2023-05-09T07:04:39.317Z,5.10
2023-05-09T07:07:06.675Z,6.57
2023-05-09T07:09:34.081Z,5.65
2023-05-09T07:12:01.758Z,4.55
2023-05-09T07:14:29.069Z,4.65
2023-05-09T07:17:05.122Z,6.93
2023-05-09T07:19:41.402Z,6.28
2023-05-09T07:22:08.712Z,5.03
2023-05-09T07:24:36.295Z,5.30
2023-05-09T07:27:03.928Z,7.63
2023-05-09T07:29:32.071Z,5.80
2023-05-09T07:31:59.295Z,7.88
2023-05-09T07:34:26.711Z,5.47
2023-05-09T07:36:54.422Z,5.20
2023-05-09T07:39:21.618Z,6.05
2023-05-09T07:41:49.015Z,6.43
2023-05-09T07:44:16.317Z,5.80
2023-05-09T07:46:43.561Z,5.85
2023-05-09T07:49:10.773Z,6.95
2023-05-09T07:51:38.069Z,5.93
2023-05-09T07:54:05.700Z,5.00
2023-05-09T07:56:33.448Z,5.63
2023-05-09T07:59:00.874Z,4.95
2023-05-09T08:01:28.184Z,5.05
2023-05-09T08:03:55.637Z,5.45
2023-05-09T08:06:22.939Z,6.25
2023-05-09T08:08:50.387Z,6.00
2023-05-09T08:11:17.869Z,4.43
2023-05-09T08:13:45.105Z,5.53
2023-05-09T08:16:12.362Z,7.07
2023-05-09T08:18:39.583Z,8.02
2023-05-09T08:21:06.880Z,6.05
2023-05-09T08:23:34.532Z,6.30
2023-05-09T08:26:01.809Z,8.35
2023-05-09T08:28:30.044Z,7.70
2023-05-09T08:30:57.867Z,4.60
2023-05-09T08:33:25.941Z,6.45
2023-05-09T08:35:53.428Z,5.25
2023-05-09T08:38:21.197Z,4.80
2023-05-09T08:40:48.525Z,6.28
2023-05-09T08:43:18.227Z,6.35
2023-05-09T08:45:53.381Z,8.90
2023-05-09T08:48:21.309Z,5.32
2023-05-09T08:50:48.555Z,5.80
2023-05-09T08:53:16.975Z,7.28
2023-05-09T08:55:44.841Z,5.53
2023-05-09T08:58:13.482Z,8.45
2023-05-09T09:00:41.489Z,6.05
2023-05-09T09:03:09.152Z,5.00
2023-05-09T09:05:41.243Z,4.72
2023-05-09T09:08:10.171Z,4.85
2023-05-09T09:10:40.620Z,4.88
2023-05-09T09:13:08.669Z,4.88
2023-05-09T09:15:37.099Z,5.60
2023-05-09T09:18:09.182Z,6.43
2023-05-09T09:20:48.916Z,4.95
2023-05-09T09:23:20.988Z,4.75
2023-05-09T09:25:48.588Z,4.70
2023-05-09T09:28:15.921Z,4.57
2023-05-09T09:30:52.344Z,5.85
2023-05-09T09:33:23.583Z,4.13
2023-05-09T09:38:19.652Z,5.35
2023-05-09T09:40:55.054Z,5.72
2023-05-09T09:43:29.155Z,5.90
2023-05-09T09:45:57.227Z,5.55
2023-05-09T09:48:26.178Z,4.72
2023-05-09T09:50:59.264Z,4.72
2023-05-09T09:53:30.946Z,5.55
2023-05-09T09:55:58.645Z,4.60
2023-05-09T09:58:26.010Z,5.90
2023-05-09T10:01:09.085Z,5.10
2023-05-09T10:03:37.682Z,4.35
2023-05-09T10:06:05.495Z,5.80
2023-05-09T10:08:33.083Z,5.47
2023-05-09T10:11:00.673Z,4.72
2023-05-09T10:13:28.349Z,5.18
2023-05-09T10:15:58.064Z,5.93
2023-05-09T10:18:27.960Z,5.78
2023-05-09T10:20:55.373Z,6.57
2023-05-09T10:23:23.302Z,5.55
2023-05-09T10:26:18.354Z,5.95
2023-05-09T10:28:46.581Z,5.40
2023-05-09T10:31:27.247Z,6.47
2023-05-09T10:33:55.950Z,5.10
2023-05-09T10:36:24.178Z,5.40
2023-05-09T10:38:53.828Z,4.78
2023-05-09T10:41:22.159Z,4.75
2023-05-09T10:43:49.842Z,6.32
2023-05-09T10:46:17.753Z,5.57
2023-05-09T10:48:45.569Z,5.53
2023-05-09T10:51:13.186Z,5.18
2023-05-09T10:53:42.533Z,4.85
2023-05-09T10:56:09.814Z,5.72
2023-05-09T10:58:39.037Z,4.13
2023-05-09T11:01:06.506Z,4.18
2023-05-09T11:03:53.429Z,4.78
2023-05-09T11:06:53.978Z,4.90
2023-05-09T11:09:29.930Z,5.35
2023-05-09T11:12:01.708Z,3.95
2023-05-09T11:14:45.042Z,6.50
2023-05-09T11:17:21.941Z,5.53
2023-05-09T11:19:49.268Z,4.60
2023-05-09T11:22:20.637Z,4.05
2023-05-09T11:27:23.025Z,4.93
2023-05-09T11:29:51.855Z,4.05
2023-05-09T11:32:19.716Z,4.60
2023-05-09T11:34:47.294Z,3.92
2023-05-09T11:37:16.953Z,4.70
2023-05-09T11:40:00.614Z,5.82
2023-05-09T11:42:27.987Z,5.25
2023-05-09T11:44:56.601Z,5.90
2023-05-09T11:47:24.113Z,7.18
2023-05-09T11:49:51.786Z,5.75
2023-05-09T11:52:19.446Z,5.50
2023-05-09T11:54:46.726Z,5.07
2023-05-09T11:57:17.387Z,5.32
2023-05-09T11:59:45.512Z,5.20
2023-05-09T12:02:12.934Z,6.00
2023-05-09T12:04:40.674Z,5.45
2023-05-09T12:07:08.036Z,5.80
2023-05-09T12:09:38.143Z,5.80
2023-05-09T12:12:12.183Z,5.32
2023-05-09T12:14:42.237Z,4.38
2023-05-09T12:17:09.824Z,5.75
2023-05-09T12:19:37.212Z,5.72
2023-05-09T12:22:06.674Z,4.95
2023-05-09T12:24:35.862Z,5.70
2023-05-09T12:27:03.113Z,5.93
2023-05-09T12:29:30.772Z,4.10
2023-05-09T12:31:58.268Z,5.75
2023-05-09T12:34:25.484Z,5.75
2023-05-09T12:36:53.493Z,5.03
2023-05-09T12:39:24.584Z,5.53
2023-05-09T12:42:01.182Z,4.57
2023-05-09T12:44:29.865Z,5.60
2023-05-09T12:47:03.656Z,4.10
2023-05-09T12:49:31.555Z,4.50
2023-05-09T12:52:02.284Z,5.15
2023-05-09T12:54:31.178Z,5.07
2023-05-09T12:57:02.096Z,4.93
2023-05-09T12:59:30.280Z,6.25
2023-05-09T13:01:58.497Z,4.78
2023-05-09T13:04:26.785Z,5.32
2023-05-09T13:06:58.059Z,6.05
2023-05-09T13:09:26.050Z,5.90
2023-05-09T13:11:53.427Z,4.65
2023-05-09T13:14:21.790Z,4.53
2023-05-09T13:16:49.058Z,5.38
2023-05-09T13:19:16.454Z,5.15
2023-05-09T13:21:43.732Z,5.32
2023-05-09T13:24:11.007Z,5.53
2023-05-09T13:26:38.291Z,5.20
2023-05-09T13:29:05.532Z,5.38
2023-05-09T13:31:33.944Z,5.03
2023-05-09T13:34:01.156Z,5.57
2023-05-09T13:36:28.434Z,4.95
2023-05-09T13:38:55.792Z,4.10
2023-05-09T13:41:23.977Z,4.07
2023-05-09T13:43:51.325Z,3.80
2023-05-09T13:46:18.614Z,4.00
2023-05-09T13:48:47.685Z,3.28
2023-05-09T13:51:15.125Z,3.13
2023-05-09T13:53:42.426Z,3.53
2023-05-09T13:56:09.823Z,3.42
2023-05-09T13:58:37.395Z,3.50
2023-05-09T14:01:04.814Z,3.17
2023-05-09T14:03:32.242Z,3.10
2023-05-09T14:05:59.866Z,3.60
2023-05-09T14:08:27.215Z,3.45
2023-05-09T14:10:54.753Z,3.80
2023-05-09T14:13:22.316Z,3.88
2023-05-09T14:15:49.736Z,3.30
2023-05-09T14:18:19.182Z,3.50
2023-05-09T14:20:48.335Z,4.40
2023-05-09T14:23:15.629Z,3.35
2023-05-09T14:25:42.902Z,3.75
2023-05-09T14:28:10.263Z,3.78
2023-05-09T14:30:37.655Z,3.47
2023-05-09T14:33:04.880Z,4.00
2023-05-09T14:35:34.198Z,4.03
2023-05-09T14:38:01.822Z,3.33
2023-05-09T14:40:32.211Z,3.47
2023-05-09T14:43:02.364Z,3.78
2023-05-09T14:45:30.361Z,4.00
2023-05-09T14:47:57.782Z,4.25
2023-05-09T14:50:25.823Z,3.25
2023-05-09T14:52:53.022Z,3.40
2023-05-09T14:55:21.357Z,4.40
2023-05-09T14:57:48.676Z,4.03
2023-05-09T15:00:21.390Z,4.20
2023-05-09T15:02:50.134Z,3.47
2023-05-09T15:05:17.846Z,3.70
2023-05-09T15:07:46.079Z,3.40
2023-05-09T15:10:13.533Z,3.70
2023-05-09T15:12:41.231Z,3.65
2023-05-09T15:15:14.853Z,4.10
2023-05-09T15:17:43.090Z,4.47
2023-05-09T15:20:17.697Z,3.70
2023-05-09T15:22:46.300Z,4.07
2023-05-09T15:25:13.560Z,3.72
2023-05-09T15:27:40.870Z,4.32
2023-05-09T15:30:08.858Z,4.93
2023-05-09T15:32:41.704Z,3.40
2023-05-09T15:35:09.093Z,3.03
2023-05-09T15:37:37.172Z,4.38
2023-05-09T15:40:05.229Z,4.60
2023-05-09T15:42:32.749Z,3.65
2023-05-09T15:44:59.993Z,3.60
2023-05-09T15:47:27.610Z,3.95
2023-05-09T15:49:54.846Z,3.78
2023-05-09T15:52:22.245Z,4.10
2023-05-09T15:54:50.392Z,4.03
2023-05-09T15:57:18.194Z,3.95
2023-05-09T15:59:45.815Z,4.32
2023-05-09T16:02:13.099Z,3.30
2023-05-09T16:04:40.342Z,3.55
2023-05-09T16:07:08.660Z,4.30
2023-05-09T16:09:37.251Z,3.88
2023-05-09T16:12:05.439Z,3.65
2023-05-09T16:14:33.174Z,3.97
2023-05-09T16:17:01.099Z,3.90
2023-05-09T16:19:28.675Z,4.18
2023-05-09T16:21:56.097Z,4.40
2023-05-09T16:24:23.561Z,4.32
2023-05-09T16:26:50.773Z,3.90
2023-05-09T16:29:18.065Z,4.60
2023-05-09T16:31:45.333Z,4.80
2023-05-09T16:34:12.778Z,4.70
2023-05-09T16:36:40.049Z,5.40
2023-05-09T16:39:07.569Z,4.70
2023-05-09T16:41:34.844Z,3.40
2023-05-09T16:44:02.168Z,3.65
2023-05-09T16:46:29.681Z,4.22
2023-05-09T16:48:56.964Z,4.30
2023-05-09T16:51:24.250Z,5.00
2023-05-09T16:53:51.560Z,4.28
2023-05-09T16:56:18.897Z,4.65
2023-05-09T16:58:46.201Z,5.05
2023-05-09T17:01:13.452Z,4.45
2023-05-09T17:03:40.699Z,4.28
2023-05-09T17:06:08.009Z,4.28
2023-05-09T17:08:35.452Z,4.25
2023-05-09T17:11:02.840Z,3.85
2023-05-09T17:13:30.439Z,4.10
2023-05-09T17:15:58.269Z,3.90
2023-05-09T17:18:36.471Z,3.95
2023-05-09T17:21:05.052Z,3.40
2023-05-09T17:23:32.545Z,3.65
2023-05-09T17:25:59.791Z,4.05
2023-05-09T17:28:27.185Z,4.18
2023-05-09T17:30:54.532Z,3.05
2023-05-09T17:33:21.897Z,4.22
2023-05-09T17:35:50.094Z,4.13
2023-05-09T17:38:17.676Z,4.53
2023-05-09T17:40:45.047Z,4.07
2023-05-09T17:43:15.784Z,4.05
2023-05-09T17:45:43.267Z,5.95
2023-05-09T17:48:10.754Z,6.13
2023-05-09T17:50:37.971Z,5.18
2023-05-09T17:53:08.462Z,5.57
2023-05-09T17:55:35.988Z,6.30
2023-05-09T17:58:03.251Z,6.75
2023-05-09T18:00:30.631Z,5.07
2023-05-09T18:03:00.395Z,5.70
2023-05-09T18:05:27.932Z,6.25
2023-05-09T18:07:56.745Z,6.15
2023-05-09T18:10:23.979Z,6.45
2023-05-09T18:12:52.776Z,6.28
2023-05-09T18:15:20.093Z,5.90
2023-05-09T18:17:49.260Z,6.30
2023-05-09T18:20:16.895Z,6.78
2023-05-09T18:22:44.548Z,6.10
2023-05-09T18:25:12.068Z,5.93
2023-05-09T18:27:39.368Z,5.30
2023-05-09T18:30:07.379Z,5.40
2023-05-09T18:32:34.874Z,5.30
2023-05-09T18:35:02.227Z,6.47
2023-05-09T18:37:29.695Z,5.65
2023-05-09T18:39:57.170Z,6.07
2023-05-09T18:42:24.472Z,5.07
2023-05-09T18:44:51.730Z,5.25
2023-05-09T18:47:19.067Z,5.40
2023-05-09T18:49:47.540Z,5.88
2023-05-09T18:52:15.356Z,5.05
2023-05-09T18:54:42.606Z,5.10
2023-05-09T18:57:09.959Z,5.88
2023-05-09T18:59:37.523Z,5.30
2023-05-09T19:02:04.920Z,5.80
2023-05-09T19:04:32.313Z,5.32
2023-05-09T19:06:59.810Z,5.82
2023-05-09T19:09:27.086Z,5.07
2023-05-09T19:11:54.507Z,5.43
2023-05-09T19:14:21.887Z,5.78
2023-05-09T19:16:49.297Z,5.72
2023-05-09T19:19:16.514Z,5.78
2023-05-09T19:21:44.168Z,5.30
2023-05-09T19:24:11.472Z,5.40
2023-05-09T19:26:38.687Z,5.53
2023-05-09T19:29:08.181Z,5.38
2023-05-09T19:31:36.764Z,5.20
2023-05-09T19:34:04.138Z,4.90
2023-05-09T19:36:31.475Z,5.30
2023-05-09T19:38:58.744Z,4.97
2023-05-09T19:41:26.195Z,5.40
2023-05-09T19:43:53.621Z,5.35
2023-05-09T19:46:22.292Z,5.13
2023-05-09T19:48:49.522Z,5.55
2023-05-09T19:51:16.751Z,5.55
2023-05-09T19:53:44.237Z,5.03
2023-05-09T19:56:12.655Z,5.55
2023-05-09T19:58:40.006Z,5.30
2023-05-09T20:01:07.445Z,5.30
2023-05-09T20:03:38.764Z,5.07
2023-05-09T20:06:07.732Z,5.75
2023-05-09T20:08:35.618Z,5.40
2023-05-09T20:11:03.253Z,5.80
2023-05-09T20:13:31.943Z,5.32
2023-05-09T20:16:00.167Z,5.35
2023-05-09T20:18:27.497Z,5.50
2023-05-09T20:20:54.929Z,5.80
2023-05-09T20:23:22.410Z,5.40
2023-05-09T20:25:49.748Z,5.88
2023-05-09T20:28:20.254Z,6.20
2023-05-09T20:30:47.663Z,5.60
2023-05-09T20:33:15.447Z,5.50
2023-05-09T20:35:43.610Z,5.72
2023-05-09T20:38:11.674Z,5.30
2023-05-09T20:40:39.299Z,5.75
2023-05-09T20:43:06.558Z,5.95
2023-05-09T20:45:34.067Z,5.75
2023-05-09T20:48:02.059Z,5.85
2023-05-09T20:50:29.752Z,5.55
2023-05-09T20:52:56.967Z,6.43
2023-05-09T20:55:24.568Z,6.00
2023-05-09T20:57:51.946Z,6.28
2023-05-09T21:00:19.308Z,5.80
2023-05-09T21:02:46.867Z,5.75
2023-05-09T21:05:14.290Z,5.53
2023-05-09T21:07:41.747Z,5.70
2023-05-09T21:10:10.453Z,5.53
2023-05-09T21:12:38.113Z,5.30
2023-05-09T21:15:05.921Z,5.50
2023-05-09T21:17:33.364Z,5.28
2023-05-09T21:20:01.020Z,5.45
2023-05-09T21:22:28.627Z,4.95
2023-05-09T21:24:55.917Z,5.20
2023-05-09T21:27:23.311Z,5.30
2023-05-09T21:29:50.908Z,5.95
2023-05-09T21:32:18.570Z,5.47
2023-05-09T21:34:47.542Z,5.55
2023-05-09T21:37:15.220Z,5.13
2023-05-09T21:39:42.444Z,4.93
2023-05-09T21:42:09.651Z,5.00
2023-05-09T21:44:36.919Z,5.10
2023-05-09T21:47:04.268Z,5.32
2023-05-09T21:49:31.503Z,5.60
2023-05-09T21:51:58.876Z,5.40
2023-05-09T21:54:26.226Z,5.60
2023-05-09T21:56:53.433Z,5.00
2023-05-09T21:59:22.252Z,5.30
2023-05-09T22:01:49.483Z,5.68
2023-05-09T22:04:16.957Z,5.40
2023-05-09T22:06:44.473Z,5.05
2023-05-09T22:09:11.746Z,5.25
2023-05-09T22:11:39.809Z,5.18
2023-05-09T22:14:07.408Z,5.38
2023-05-09T22:16:34.658Z,5.20
2023-05-09T22:19:01.940Z,5.00
2023-05-09T22:21:29.340Z,5.28
2023-05-09T22:23:56.638Z,5.38
2023-05-09T22:26:23.864Z,5.20
2023-05-09T22:28:51.071Z,5.75
2023-05-09T22:31:18.488Z,5.10
2023-05-09T22:33:45.734Z,5.00
2023-05-09T22:36:14.408Z,5.43
2023-05-09T22:38:42.378Z,5.30
2023-05-09T22:41:09.625Z,5.30
2023-05-09T22:43:39.624Z,5.00
2023-05-09T22:46:07.275Z,5.30
2023-05-09T22:48:34.711Z,5.32
2023-05-09T22:51:02.180Z,5.20
2023-05-09T22:53:30.451Z,5.30
2023-05-09T22:55:57.878Z,5.70
2023-05-09T22:58:25.211Z,5.35
2023-05-09T23:00:52.466Z,5.25
2023-05-09T23:03:19.855Z,5.40
2023-05-09T23:05:47.126Z,5.88
2023-05-09T23:08:14.344Z,5.57
2023-05-09T23:10:42.408Z,6.10
2023-05-09T23:13:10.058Z,5.38
2023-05-09T23:15:37.392Z,5.35
2023-05-09T23:18:04.677Z,5.07
2023-05-09T23:20:32.976Z,5.07
2023-05-09T23:23:00.213Z,5.63
2023-05-09T23:25:27.425Z,5.88
2023-05-09T23:27:54.914Z,5.38
2023-05-09T23:30:22.246Z,5.53
2023-05-09T23:32:49.930Z,5.78
2023-05-09T23:35:17.195Z,5.28
2023-05-09T23:37:44.419Z,5.88
2023-05-09T23:40:12.400Z,6.07
2023-05-09T23:42:39.929Z,5.43
2023-05-09T23:45:07.616Z,5.60
2023-05-09T23:47:35.176Z,5.20
2023-05-09T23:50:02.439Z,5.68
2023-05-09T23:52:29.769Z,5.47
2023-05-09T23:54:57.038Z,5.10
2023-05-09T23:57:24.260Z,5.35
2023-05-09T23:59:51.478Z,5.93
